Vera Y Pintado, Argentina
Current Conditions -  °F | °C
As of 8:00 AM on Thursday 23 Oct 2014 (Local Time) from SARL Reporting Station
Clear Clear  
Wind Chill: 70°   Ceiling: Unl
Heat Index: 70°   Visibility: 6mi
Dew Point: 61°   Wind: 6mph
Humidity: 73%   Direction: 90°E
Pressure: 30.03"   Gusts: NA
Location:  30.15°S, 60.32°W
Report Text: SARL 231100Z 09005KT CAVOK 21/16 Q1017
Loading
Personal Weather Stations






























Interactive Weather Map
Tropical Storm Tracking
New forecast layout! Learn more

10-Day Weather Forecast

Advertisements
Track Severe Weather on mobile